sensor_id;sensor_type;location;lat;lon;timestamp;P1;durP1;ratioP1;P2;durP2;ratioP2
11771;SDS011;12556;55.748;13.194;2023-02-01T00:02:03;15.53;;;3.30;;
11771;SDS011;12556;55.748;13.194;2023-02-01T00:04:30;8.67;;;2.93;;
11771;SDS011;12556;55.748;13.194;2023-02-01T00:06:56;14.00;;;3.27;;
11771;SDS011;12556;55.748;13.194;2023-02-01T00:09:25;15.07;;;3.13;;
11771;SDS011;12556;55.748;13.194;2023-02-01T00:11:52;14.50;;;4.00;;
11771;SDS011;12556;55.748;13.194;2023-02-01T00:14:18;10.87;;;3.23;;
11771;SDS011;12556;55.748;13.194;2023-02-01T00:16:48;10.00;;;2.50;;
11771;SDS011;12556;55.748;13.194;2023-02-01T00:19:15;5.57;;;2.40;;
11771;SDS011;12556;55.748;13.194;2023-02-01T00:21:43;12.17;;;3.90;;
11771;SDS011;12556;55.748;13.194;2023-02-01T00:24:11;12.00;;;2.97;;
11771;SDS011;12556;55.748;13.194;2023-02-01T00:26:40;9.80;;;2.47;;
11771;SDS011;12556;55.748;13.194;2023-02-01T00:29:09;12.70;;;3.23;;
11771;SDS011;12556;55.748;13.194;2023-02-01T00:31:38;10.90;;;2.50;;
11771;SDS011;12556;55.748;13.194;2023-02-01T00:34:05;10.13;;;2.30;;
11771;SDS011;12556;55.748;13.194;2023-02-01T00:36:32;15.07;;;2.63;;
11771;SDS011;12556;55.748;13.194;2023-02-01T00:38:59;12.20;;;2.33;;
11771;SDS011;12556;55.748;13.194;2023-02-01T00:41:26;10.87;;;2.80;;
11771;SDS011;12556;55.748;13.194;2023-02-01T00:43:54;8.43;;;2.50;;
11771;SDS011;12556;55.748;13.194;2023-02-01T00:46:21;10.10;;;2.47;;
11771;SDS011;12556;55.748;13.194;2023-02-01T00:48:48;6.30;;;3.00;;
11771;SDS011;12556;55.748;13.194;2023-02-01T00:51:16;10.60;;;2.67;;
11771;SDS011;12556;55.748;13.194;2023-02-01T00:53:44;10.03;;;2.20;;
11771;SDS011;12556;55.748;13.194;2023-02-01T00:56:12;12.30;;;3.27;;
11771;SDS011;12556;55.748;13.194;2023-02-01T00:58:39;11.90;;;4.50;;
11771;SDS011;12556;55.748;13.194;2023-02-01T01:01:09;14.20;;;3.20;;
11771;SDS011;12556;55.748;13.194;2023-02-01T01:03:38;8.70;;;2.90;;
11771;SDS011;12556;55.748;13.194;2023-02-01T01:06:07;11.30;;;3.30;;
11771;SDS011;12556;55.748;13.194;2023-02-01T01:08:36;10.80;;;2.53;;
11771;SDS011;12556;55.748;13.194;2023-02-01T01:11:04;11.07;;;3.00;;
11771;SDS011;12556;55.748;13.194;2023-02-01T01:13:32;12.67;;;2.87;;
11771;SDS011;12556;55.748;13.194;2023-02-01T01:15:59;14.73;;;3.80;;
11771;SDS011;12556;55.748;13.194;2023-02-01T01:18:31;13.33;;;2.83;;
11771;SDS011;12556;55.748;13.194;2023-02-01T01:20:59;14.20;;;4.10;;
11771;SDS011;12556;55.748;13.194;2023-02-01T01:23:26;13.23;;;3.07;;
11771;SDS011;12556;55.748;13.194;2023-02-01T01:25:53;8.90;;;3.60;;
11771;SDS011;12556;55.748;13.194;2023-02-01T01:28:20;18.30;;;5.00;;
11771;SDS011;12556;55.748;13.194;2023-02-01T01:30:47;11.83;;;3.57;;
11771;SDS011;12556;55.748;13.194;2023-02-01T01:33:14;12.70;;;3.43;;
11771;SDS011;12556;55.748;13.194;2023-02-01T01:35:43;14.37;;;3.80;;
11771;SDS011;12556;55.748;13.194;2023-02-01T01:38:10;12.83;;;3.67;;
11771;SDS011;12556;55.748;13.194;2023-02-01T01:40:37;12.40;;;3.40;;
11771;SDS011;12556;55.748;13.194;2023-02-01T01:43:05;10.63;;;3.30;;
11771;SDS011;12556;55.748;13.194;2023-02-01T01:45:40;9.87;;;2.93;;
11771;SDS011;12556;55.748;13.194;2023-02-01T01:48:08;17.27;;;4.40;;
11771;SDS011;12556;55.748;13.194;2023-02-01T01:50:40;7.20;;;2.90;;
11771;SDS011;12556;55.748;13.194;2023-02-01T01:53:14;17.73;;;4.17;;
11771;SDS011;12556;55.748;13.194;2023-02-01T01:55:46;17.50;;;3.87;;
11771;SDS011;12556;55.748;13.194;2023-02-01T01:58:16;10.23;;;3.67;;
11771;SDS011;12556;55.748;13.194;2023-02-01T02:00:45;10.07;;;3.13;;
11771;SDS011;12556;55.748;13.194;2023-02-01T02:03:14;14.83;;;3.83;;
11771;SDS011;12556;55.748;13.194;2023-02-01T02:05:45;8.17;;;3.30;;
11771;SDS011;12556;55.748;13.194;2023-02-01T02:08:14;10.73;;;3.60;;
11771;SDS011;12556;55.748;13.194;2023-02-01T02:10:42;13.83;;;3.40;;
11771;SDS011;12556;55.748;13.194;2023-02-01T02:13:30;11.30;;;3.20;;
11771;SDS011;12556;55.748;13.194;2023-02-01T02:16:03;11.23;;;3.00;;
11771;SDS011;12556;55.748;13.194;2023-02-01T02:18:54;12.57;;;3.90;;
11771;SDS011;12556;55.748;13.194;2023-02-01T02:21:36;8.20;;;2.80;;
11771;SDS011;12556;55.748;13.194;2023-02-01T02:24:24;9.53;;;2.80;;
11771;SDS011;12556;55.748;13.194;2023-02-01T02:27:21;7.30;;;2.53;;
11771;SDS011;12556;55.748;13.194;2023-02-01T02:36:03;12.83;;;3.50;;
11771;SDS011;12556;55.748;13.194;2023-02-01T02:38:37;14.97;;;3.17;;
11771;SDS011;12556;55.748;13.194;2023-02-01T02:41:13;10.03;;;3.13;;
11771;SDS011;12556;55.748;13.194;2023-02-01T02:44:04;12.20;;;3.47;;
11771;SDS011;12556;55.748;13.194;2023-02-01T02:46:54;10.03;;;2.70;;
11771;SDS011;12556;55.748;13.194;2023-02-01T02:49:46;18.20;;;3.83;;
11771;SDS011;12556;55.748;13.194;2023-02-01T02:52:34;14.67;;;4.40;;
11771;SDS011;12556;55.748;13.194;2023-02-01T02:55:21;12.10;;;3.47;;
11771;SDS011;12556;55.748;13.194;2023-02-01T02:57:50;20.67;;;4.23;;
11771;SDS011;12556;55.748;13.194;2023-02-01T03:00:35;14.20;;;3.17;;
11771;SDS011;12556;55.748;13.194;2023-02-01T03:03:20;20.50;;;5.00;;
11771;SDS011;12556;55.748;13.194;2023-02-01T03:06:08;20.43;;;5.00;;
11771;SDS011;12556;55.748;13.194;2023-02-01T03:08:41;20.80;;;5.43;;
11771;SDS011;12556;55.748;13.194;2023-02-01T03:11:10;14.13;;;4.87;;
11771;SDS011;12556;55.748;13.194;2023-02-01T03:13:41;9.57;;;4.10;;
11771;SDS011;12556;55.748;13.194;2023-02-01T03:16:12;17.20;;;4.07;;
11771;SDS011;12556;55.748;13.194;2023-02-01T03:18:44;19.43;;;3.73;;
11771;SDS011;12556;55.748;13.194;2023-02-01T03:21:17;12.87;;;2.90;;
11771;SDS011;12556;55.748;13.194;2023-02-01T03:23:51;15.00;;;3.60;;
11771;SDS011;12556;55.748;13.194;2023-02-01T03:26:22;12.40;;;3.77;;
11771;SDS011;12556;55.748;13.194;2023-02-01T03:28:54;12.27;;;4.30;;
11771;SDS011;12556;55.748;13.194;2023-02-01T03:31:26;18.03;;;4.10;;
11771;SDS011;12556;55.748;13.194;2023-02-01T03:33:54;23.10;;;4.37;;
11771;SDS011;12556;55.748;13.194;2023-02-01T03:36:24;8.80;;;3.57;;
11771;SDS011;12556;55.748;13.194;2023-02-01T03:38:57;13.87;;;3.33;;
11771;SDS011;12556;55.748;13.194;2023-02-01T03:41:33;17.23;;;3.90;;
11771;SDS011;12556;55.748;13.194;2023-02-01T03:44:04;12.80;;;3.40;;
11771;SDS011;12556;55.748;13.194;2023-02-01T03:46:40;16.70;;;3.93;;
11771;SDS011;12556;55.748;13.194;2023-02-01T03:49:12;13.27;;;3.60;;
11771;SDS011;12556;55.748;13.194;2023-02-01T03:51:42;17.63;;;4.07;;
11771;SDS011;12556;55.748;13.194;2023-02-01T03:54:11;10.33;;;3.80;;
11771;SDS011;12556;55.748;13.194;2023-02-01T03:56:42;13.37;;;3.80;;
11771;SDS011;12556;55.748;13.194;2023-02-01T03:59:10;14.77;;;3.80;;
11771;SDS011;12556;55.748;13.194;2023-02-01T04:01:38;12.53;;;3.53;;
11771;SDS011;12556;55.748;13.194;2023-02-01T04:04:05;15.50;;;3.77;;
11771;SDS011;12556;55.748;13.194;2023-02-01T04:06:34;17.30;;;4.47;;
11771;SDS011;12556;55.748;13.194;2023-02-01T04:09:01;15.97;;;4.23;;
11771;SDS011;12556;55.748;13.194;2023-02-01T04:11:30;12.10;;;3.67;;
11771;SDS011;12556;55.748;13.194;2023-02-01T04:13:56;13.33;;;3.77;;
11771;SDS011;12556;55.748;13.194;2023-02-01T04:16:29;21.00;;;5.03;;
11771;SDS011;12556;55.748;13.194;2023-02-01T04:18:56;16.63;;;4.50;;
11771;SDS011;12556;55.748;13.194;2023-02-01T04:21:23;21.23;;;4.53;;
11771;SDS011;12556;55.748;13.194;2023-02-01T04:23:51;21.73;;;4.50;;
11771;SDS011;12556;55.748;13.194;2023-02-01T04:26:18;14.90;;;4.60;;
11771;SDS011;12556;55.748;13.194;2023-02-01T04:28:46;20.87;;;4.57;;
11771;SDS011;12556;55.748;13.194;2023-02-01T04:31:13;23.00;;;4.90;;
11771;SDS011;12556;55.748;13.194;2023-02-01T04:33:41;14.57;;;4.30;;
11771;SDS011;12556;55.748;13.194;2023-02-01T04:36:08;18.90;;;4.40;;
11771;SDS011;12556;55.748;13.194;2023-02-01T04:38:36;12.67;;;4.33;;
11771;SDS011;12556;55.748;13.194;2023-02-01T04:41:02;12.23;;;3.90;;
11771;SDS011;12556;55.748;13.194;2023-02-01T04:43:29;18.90;;;5.60;;
11771;SDS011;12556;55.748;13.194;2023-02-01T04:45:58;16.60;;;4.10;;
11771;SDS011;12556;55.748;13.194;2023-02-01T04:48:24;19.83;;;4.43;;
11771;SDS011;12556;55.748;13.194;2023-02-01T04:50:52;17.07;;;4.47;;
11771;SDS011;12556;55.748;13.194;2023-02-01T04:53:19;18.60;;;4.43;;
11771;SDS011;12556;55.748;13.194;2023-02-01T04:55:47;13.93;;;4.20;;
11771;SDS011;12556;55.748;13.194;2023-02-01T04:58:14;14.10;;;4.23;;
11771;SDS011;12556;55.748;13.194;2023-02-01T05:00:41;14.20;;;4.07;;
11771;SDS011;12556;55.748;13.194;2023-02-01T05:03:10;16.63;;;4.37;;
11771;SDS011;12556;55.748;13.194;2023-02-01T05:05:36;14.37;;;4.27;;
11771;SDS011;12556;55.748;13.194;2023-02-01T05:08:03;17.43;;;4.13;;
11771;SDS011;12556;55.748;13.194;2023-02-01T05:10:30;20.00;;;5.03;;
11771;SDS011;12556;55.748;13.194;2023-02-01T05:12:57;14.40;;;4.00;;
11771;SDS011;12556;55.748;13.194;2023-02-01T05:15:41;12.00;;;3.80;;
11771;SDS011;12556;55.748;13.194;2023-02-01T05:18:09;14.40;;;3.30;;
11771;SDS011;12556;55.748;13.194;2023-02-01T05:20:36;12.33;;;3.57;;
11771;SDS011;12556;55.748;13.194;2023-02-01T05:23:03;15.73;;;3.97;;
11771;SDS011;12556;55.748;13.194;2023-02-01T05:25:30;11.80;;;3.40;;
11771;SDS011;12556;55.748;13.194;2023-02-01T05:27:57;9.93;;;3.43;;
11771;SDS011;12556;55.748;13.194;2023-02-01T05:30:24;14.03;;;3.70;;
11771;SDS011;12556;55.748;13.194;2023-02-01T05:32:51;9.37;;;2.90;;
11771;SDS011;12556;55.748;13.194;2023-02-01T05:35:19;12.77;;;3.57;;
11771;SDS011;12556;55.748;13.194;2023-02-01T05:37:46;12.67;;;3.00;;
11771;SDS011;12556;55.748;13.194;2023-02-01T05:40:13;15.93;;;3.53;;
11771;SDS011;12556;55.748;13.194;2023-02-01T05:42:40;15.13;;;4.47;;
11771;SDS011;12556;55.748;13.194;2023-02-01T05:45:07;10.60;;;3.73;;
11771;SDS011;12556;55.748;13.194;2023-02-01T05:47:35;14.43;;;4.20;;
11771;SDS011;12556;55.748;13.194;2023-02-01T05:50:02;13.70;;;3.67;;
11771;SDS011;12556;55.748;13.194;2023-02-01T05:52:30;12.93;;;3.80;;
11771;SDS011;12556;55.748;13.194;2023-02-01T05:54:57;14.63;;;4.73;;
11771;SDS011;12556;55.748;13.194;2023-02-01T05:57:24;13.77;;;4.33;;
11771;SDS011;12556;55.748;13.194;2023-02-01T05:59:52;14.77;;;3.97;;
11771;SDS011;12556;55.748;13.194;2023-02-01T06:02:18;12.33;;;3.30;;
11771;SDS011;12556;55.748;13.194;2023-02-01T06:04:46;12.47;;;3.23;;
11771;SDS011;12556;55.748;13.194;2023-02-01T06:07:13;12.30;;;3.40;;
11771;SDS011;12556;55.748;13.194;2023-02-01T06:09:41;13.00;;;3.43;;
11771;SDS011;12556;55.748;13.194;2023-02-01T06:12:08;13.30;;;3.17;;
11771;SDS011;12556;55.748;13.194;2023-02-01T06:14:36;13.77;;;3.50;;
11771;SDS011;12556;55.748;13.194;2023-02-01T06:17:03;10.47;;;3.40;;
11771;SDS011;12556;55.748;13.194;2023-02-01T06:19:30;7.27;;;2.63;;
11771;SDS011;12556;55.748;13.194;2023-02-01T06:21:57;8.90;;;2.60;;
11771;SDS011;12556;55.748;13.194;2023-02-01T06:24:24;7.57;;;2.47;;
11771;SDS011;12556;55.748;13.194;2023-02-01T06:26:52;8.80;;;2.37;;
11771;SDS011;12556;55.748;13.194;2023-02-01T06:29:19;6.70;;;2.40;;
11771;SDS011;12556;55.748;13.194;2023-02-01T06:31:46;8.00;;;2.83;;
11771;SDS011;12556;55.748;13.194;2023-02-01T06:34:13;10.50;;;2.83;;
11771;SDS011;12556;55.748;13.194;2023-02-01T06:36:40;11.97;;;2.63;;
11771;SDS011;12556;55.748;13.194;2023-02-01T06:39:07;5.57;;;1.93;;
11771;SDS011;12556;55.748;13.194;2023-02-01T06:41:34;8.73;;;1.80;;
11771;SDS011;12556;55.748;13.194;2023-02-01T06:44:02;7.53;;;2.23;;
11771;SDS011;12556;55.748;13.194;2023-02-01T06:46:29;8.13;;;2.50;;
11771;SDS011;12556;55.748;13.194;2023-02-01T06:48:56;7.90;;;1.90;;
11771;SDS011;12556;55.748;13.194;2023-02-01T06:51:23;9.30;;;2.10;;
11771;SDS011;12556;55.748;13.194;2023-02-01T06:53:51;3.20;;;1.80;;
11771;SDS011;12556;55.748;13.194;2023-02-01T06:56:18;8.97;;;2.03;;
11771;SDS011;12556;55.748;13.194;2023-02-01T06:58:45;8.80;;;1.97;;
11771;SDS011;12556;55.748;13.194;2023-02-01T07:01:15;5.90;;;2.13;;
11771;SDS011;12556;55.748;13.194;2023-02-01T07:03:42;8.20;;;2.13;;
11771;SDS011;12556;55.748;13.194;2023-02-01T07:06:12;7.43;;;2.47;;
11771;SDS011;12556;55.748;13.194;2023-02-01T07:08:39;6.77;;;2.23;;
11771;SDS011;12556;55.748;13.194;2023-02-01T07:11:07;13.83;;;5.70;;
11771;SDS011;12556;55.748;13.194;2023-02-01T07:13:36;11.37;;;4.47;;
11771;SDS011;12556;55.748;13.194;2023-02-01T07:16:04;8.83;;;3.87;;
11771;SDS011;12556;55.748;13.194;2023-02-01T07:18:34;13.40;;;7.07;;
11771;SDS011;12556;55.748;13.194;2023-02-01T07:21:01;14.50;;;7.50;;
11771;SDS011;12556;55.748;13.194;2023-02-01T07:23:28;10.30;;;2.53;;
11771;SDS011;12556;55.748;13.194;2023-02-01T07:25:55;5.43;;;2.70;;
11771;SDS011;12556;55.748;13.194;2023-02-01T07:28:23;10.33;;;1.97;;
11771;SDS011;12556;55.748;13.194;2023-02-01T07:30:50;6.87;;;2.47;;
11771;SDS011;12556;55.748;13.194;2023-02-01T07:33:18;12.67;;;2.50;;
11771;SDS011;12556;55.748;13.194;2023-02-01T07:35:47;10.60;;;2.13;;
11771;SDS011;12556;55.748;13.194;2023-02-01T07:38:15;5.40;;;2.30;;
11771;SDS011;12556;55.748;13.194;2023-02-01T07:40:42;6.70;;;2.33;;
11771;SDS011;12556;55.748;13.194;2023-02-01T07:43:09;6.70;;;2.03;;
11771;SDS011;12556;55.748;13.194;2023-02-01T07:45:36;8.23;;;2.27;;
11771;SDS011;12556;55.748;13.194;2023-02-01T07:48:03;6.43;;;1.93;;
11771;SDS011;12556;55.748;13.194;2023-02-01T07:50:30;8.40;;;2.10;;
11771;SDS011;12556;55.748;13.194;2023-02-01T07:52:59;8.13;;;2.23;;
11771;SDS011;12556;55.748;13.194;2023-02-01T07:55:27;4.77;;;2.97;;
11771;SDS011;12556;55.748;13.194;2023-02-01T07:57:56;15.33;;;8.03;;
11771;SDS011;12556;55.748;13.194;2023-02-01T08:00:24;15.10;;;5.53;;
11771;SDS011;12556;55.748;13.194;2023-02-01T08:03:09;10.43;;;4.00;;
11771;SDS011;12556;55.748;13.194;2023-02-01T08:05:36;7.73;;;2.57;;
11771;SDS011;12556;55.748;13.194;2023-02-01T08:08:05;6.67;;;2.43;;
11771;SDS011;12556;55.748;13.194;2023-02-01T08:10:33;11.23;;;2.60;;
11771;SDS011;12556;55.748;13.194;2023-02-01T08:13:00;10.43;;;2.87;;
11771;SDS011;12556;55.748;13.194;2023-02-01T08:15:31;11.33;;;2.90;;
11771;SDS011;12556;55.748;13.194;2023-02-01T08:17:58;8.20;;;2.10;;
11771;SDS011;12556;55.748;13.194;2023-02-01T08:20:26;12.60;;;2.67;;
11771;SDS011;12556;55.748;13.194;2023-02-01T08:22:53;10.73;;;3.60;;
11771;SDS011;12556;55.748;13.194;2023-02-01T08:25:22;10.13;;;1.90;;
11771;SDS011;12556;55.748;13.194;2023-02-01T08:27:50;6.53;;;1.97;;
11771;SDS011;12556;55.748;13.194;2023-02-01T08:30:18;12.10;;;3.33;;
11771;SDS011;12556;55.748;13.194;2023-02-01T08:32:45;8.47;;;2.17;;
11771;SDS011;12556;55.748;13.194;2023-02-01T08:35:13;9.43;;;3.40;;
11771;SDS011;12556;55.748;13.194;2023-02-01T08:37:40;8.10;;;2.37;;
11771;SDS011;12556;55.748;13.194;2023-02-01T08:40:07;7.17;;;2.23;;
11771;SDS011;12556;55.748;13.194;2023-02-01T08:42:36;9.77;;;2.63;;
11771;SDS011;12556;55.748;13.194;2023-02-01T08:45:19;10.43;;;2.20;;
11771;SDS011;12556;55.748;13.194;2023-02-01T08:47:47;8.67;;;2.70;;
11771;SDS011;12556;55.748;13.194;2023-02-01T08:50:14;7.20;;;2.83;;
11771;SDS011;12556;55.748;13.194;2023-02-01T08:52:42;8.93;;;2.57;;
11771;SDS011;12556;55.748;13.194;2023-02-01T08:55:09;5.63;;;2.03;;
11771;SDS011;12556;55.748;13.194;2023-02-01T08:57:38;10.20;;;2.13;;
11771;SDS011;12556;55.748;13.194;2023-02-01T09:00:05;8.30;;;2.07;;
11771;SDS011;12556;55.748;13.194;2023-02-01T09:02:35;9.27;;;2.50;;
11771;SDS011;12556;55.748;13.194;2023-02-01T09:05:02;8.07;;;2.40;;
11771;SDS011;12556;55.748;13.194;2023-02-01T09:07:29;6.13;;;1.93;;
11771;SDS011;12556;55.748;13.194;2023-02-01T09:09:56;7.17;;;2.43;;
11771;SDS011;12556;55.748;13.194;2023-02-01T09:12:26;8.97;;;2.40;;
11771;SDS011;12556;55.748;13.194;2023-02-01T09:14:55;8.10;;;2.03;;
11771;SDS011;12556;55.748;13.194;2023-02-01T09:17:22;5.17;;;1.90;;
11771;SDS011;12556;55.748;13.194;2023-02-01T09:19:48;5.40;;;2.63;;
11771;SDS011;12556;55.748;13.194;2023-02-01T09:22:15;6.83;;;2.63;;
11771;SDS011;12556;55.748;13.194;2023-02-01T09:24:42;2.93;;;1.80;;
11771;SDS011;12556;55.748;13.194;2023-02-01T09:27:09;5.60;;;1.93;;
11771;SDS011;12556;55.748;13.194;2023-02-01T09:29:37;6.53;;;2.10;;
11771;SDS011;12556;55.748;13.194;2023-02-01T09:32:05;6.13;;;2.63;;
11771;SDS011;12556;55.748;13.194;2023-02-01T09:34:32;4.70;;;2.07;;
11771;SDS011;12556;55.748;13.194;2023-02-01T09:36:59;8.43;;;2.40;;
11771;SDS011;12556;55.748;13.194;2023-02-01T09:39:27;8.23;;;2.00;;
11771;SDS011;12556;55.748;13.194;2023-02-01T09:41:57;5.60;;;2.10;;
11771;SDS011;12556;55.748;13.194;2023-02-01T09:44:39;7.67;;;1.77;;
11771;SDS011;12556;55.748;13.194;2023-02-01T09:47:18;11.80;;;2.87;;
11771;SDS011;12556;55.748;13.194;2023-02-01T09:49:49;7.90;;;2.20;;
11771;SDS011;12556;55.748;13.194;2023-02-01T09:52:23;6.03;;;2.43;;
11771;SDS011;12556;55.748;13.194;2023-02-01T09:54:55;6.77;;;1.97;;
11771;SDS011;12556;55.748;13.194;2023-02-01T09:57:28;9.87;;;2.20;;
11771;SDS011;12556;55.748;13.194;2023-02-01T10:00:06;11.30;;;3.10;;
11771;SDS011;12556;55.748;13.194;2023-02-01T10:02:41;10.77;;;3.33;;
11771;SDS011;12556;55.748;13.194;2023-02-01T10:05:12;5.67;;;2.07;;
11771;SDS011;12556;55.748;13.194;2023-02-01T10:07:42;9.87;;;2.07;;
11771;SDS011;12556;55.748;13.194;2023-02-01T10:10:17;6.60;;;2.20;;
11771;SDS011;12556;55.748;13.194;2023-02-01T10:12:56;6.83;;;2.40;;
11771;SDS011;12556;55.748;13.194;2023-02-01T10:15:51;8.13;;;2.20;;
11771;SDS011;12556;55.748;13.194;2023-02-01T10:18:33;9.10;;;1.90;;
11771;SDS011;12556;55.748;13.194;2023-02-01T10:21:10;5.13;;;1.80;;
11771;SDS011;12556;55.748;13.194;2023-02-01T10:23:49;3.97;;;2.20;;
11771;SDS011;12556;55.748;13.194;2023-02-01T10:26:29;11.17;;;2.77;;
11771;SDS011;12556;55.748;13.194;2023-02-01T10:28:59;4.53;;;2.10;;
11771;SDS011;12556;55.748;13.194;2023-02-01T10:31:30;7.03;;;2.20;;
11771;SDS011;12556;55.748;13.194;2023-02-01T10:34:06;7.53;;;2.30;;
11771;SDS011;12556;55.748;13.194;2023-02-01T10:36:40;4.27;;;1.73;;
11771;SDS011;12556;55.748;13.194;2023-02-01T10:39:09;9.77;;;2.70;;
11771;SDS011;12556;55.748;13.194;2023-02-01T10:41:39;8.17;;;2.33;;
11771;SDS011;12556;55.748;13.194;2023-02-01T10:44:10;5.03;;;1.80;;
11771;SDS011;12556;55.748;13.194;2023-02-01T10:46:40;7.73;;;2.50;;
11771;SDS011;12556;55.748;13.194;2023-02-01T10:49:11;5.40;;;2.23;;
11771;SDS011;12556;55.748;13.194;2023-02-01T10:51:44;7.17;;;2.87;;
11771;SDS011;12556;55.748;13.194;2023-02-01T10:54:16;5.93;;;2.23;;
11771;SDS011;12556;55.748;13.194;2023-02-01T10:56:45;8.27;;;2.60;;
11771;SDS011;12556;55.748;13.194;2023-02-01T10:59:15;10.63;;;2.60;;
11771;SDS011;12556;55.748;13.194;2023-02-01T11:01:44;11.87;;;2.50;;
11771;SDS011;12556;55.748;13.194;2023-02-01T11:04:14;7.30;;;1.97;;
11771;SDS011;12556;55.748;13.194;2023-02-01T11:06:43;8.20;;;2.40;;
11771;SDS011;12556;55.748;13.194;2023-02-01T11:09:15;15.07;;;2.90;;
11771;SDS011;12556;55.748;13.194;2023-02-01T11:11:58;5.70;;;2.80;;
11771;SDS011;12556;55.748;13.194;2023-02-01T11:14:27;15.27;;;3.67;;
11771;SDS011;12556;55.748;13.194;2023-02-01T11:17:16;7.93;;;2.77;;
11771;SDS011;12556;55.748;13.194;2023-02-01T11:19:57;10.40;;;2.67;;
11771;SDS011;12556;55.748;13.194;2023-02-01T11:22:25;11.60;;;2.87;;
11771;SDS011;12556;55.748;13.194;2023-02-01T11:24:53;6.90;;;2.23;;
11771;SDS011;12556;55.748;13.194;2023-02-01T11:27:21;9.33;;;3.60;;
11771;SDS011;12556;55.748;13.194;2023-02-01T11:29:51;10.37;;;2.83;;
11771;SDS011;12556;55.748;13.194;2023-02-01T11:32:20;9.23;;;2.43;;
11771;SDS011;12556;55.748;13.194;2023-02-01T11:34:52;9.23;;;2.50;;
11771;SDS011;12556;55.748;13.194;2023-02-01T11:37:23;7.40;;;2.97;;
11771;SDS011;12556;55.748;13.194;2023-02-01T11:39:55;9.80;;;2.90;;
11771;SDS011;12556;55.748;13.194;2023-02-01T11:42:24;9.93;;;2.80;;
11771;SDS011;12556;55.748;13.194;2023-02-01T11:44:51;12.13;;;3.23;;
11771;SDS011;12556;55.748;13.194;2023-02-01T11:47:42;11.90;;;2.53;;
11771;SDS011;12556;55.748;13.194;2023-02-01T11:50:12;5.17;;;1.70;;
11771;SDS011;12556;55.748;13.194;2023-02-01T11:52:48;9.37;;;2.50;;
11771;SDS011;12556;55.748;13.194;2023-02-01T11:55:39;8.20;;;2.07;;
11771;SDS011;12556;55.748;13.194;2023-02-01T11:58:31;8.17;;;2.30;;
11771;SDS011;12556;55.748;13.194;2023-02-01T12:01:11;8.13;;;2.67;;
11771;SDS011;12556;55.748;13.194;2023-02-01T12:03:53;8.38;;;2.85;;
11771;SDS011;12556;55.748;13.194;2023-02-01T12:06:44;6.50;;;2.00;;
11771;SDS011;12556;55.748;13.194;2023-02-01T12:09:21;9.37;;;2.70;;
11771;SDS011;12556;55.748;13.194;2023-02-01T12:12:08;6.53;;;2.00;;
11771;SDS011;12556;55.748;13.194;2023-02-01T12:14:48;8.30;;;1.90;;
11771;SDS011;12556;55.748;13.194;2023-02-01T12:17:39;7.53;;;1.93;;
11771;SDS011;12556;55.748;13.194;2023-02-01T12:20:21;9.37;;;2.27;;
11771;SDS011;12556;55.748;13.194;2023-02-01T12:23:09;11.17;;;2.10;;
11771;SDS011;12556;55.748;13.194;2023-02-01T12:26:00;7.57;;;2.37;;
11771;SDS011;12556;55.748;13.194;2023-02-01T12:28:50;7.73;;;2.40;;
11771;SDS011;12556;55.748;13.194;2023-02-01T12:31:35;5.77;;;1.93;;
11771;SDS011;12556;55.748;13.194;2023-02-01T12:34:30;10.30;;;2.50;;
11771;SDS011;12556;55.748;13.194;2023-02-01T12:37:11;7.93;;;2.53;;
11771;SDS011;12556;55.748;13.194;2023-02-01T12:39:47;8.33;;;2.67;;
11771;SDS011;12556;55.748;13.194;2023-02-01T12:42:26;6.43;;;2.00;;
11771;SDS011;12556;55.748;13.194;2023-02-01T12:44:59;7.27;;;2.60;;
11771;SDS011;12556;55.748;13.194;2023-02-01T12:47:36;6.20;;;2.13;;
11771;SDS011;12556;55.748;13.194;2023-02-01T12:50:12;7.63;;;2.57;;
11771;SDS011;12556;55.748;13.194;2023-02-01T12:52:47;5.40;;;2.17;;
11771;SDS011;12556;55.748;13.194;2023-02-01T12:55:17;7.03;;;1.97;;
11771;SDS011;12556;55.748;13.194;2023-02-01T12:57:50;8.23;;;2.43;;
11771;SDS011;12556;55.748;13.194;2023-02-01T13:00:22;4.20;;;2.00;;
11771;SDS011;12556;55.748;13.194;2023-02-01T13:02:56;8.27;;;1.90;;
11771;SDS011;12556;55.748;13.194;2023-02-01T13:05:28;5.60;;;1.50;;
11771;SDS011;12556;55.748;13.194;2023-02-01T13:08:01;3.67;;;1.47;;
11771;SDS011;12556;55.748;13.194;2023-02-01T13:10:33;5.00;;;1.70;;
11771;SDS011;12556;55.748;13.194;2023-02-01T13:13:07;3.20;;;2.00;;
11771;SDS011;12556;55.748;13.194;2023-02-01T13:15:39;3.93;;;1.67;;
11771;SDS011;12556;55.748;13.194;2023-02-01T13:18:11;6.87;;;2.00;;
11771;SDS011;12556;55.748;13.194;2023-02-01T13:20:46;5.33;;;2.00;;
11771;SDS011;12556;55.748;13.194;2023-02-01T13:23:21;8.57;;;2.10;;
11771;SDS011;12556;55.748;13.194;2023-02-01T13:25:53;12.57;;;2.73;;
11771;SDS011;12556;55.748;13.194;2023-02-01T13:28:24;9.30;;;2.80;;
11771;SDS011;12556;55.748;13.194;2023-02-01T13:30:57;7.53;;;2.20;;
11771;SDS011;12556;55.748;13.194;2023-02-01T13:33:40;9.00;;;2.37;;
11771;SDS011;12556;55.748;13.194;2023-02-01T13:36:34;5.03;;;2.23;;
11771;SDS011;12556;55.748;13.194;2023-02-01T13:39:23;5.50;;;1.80;;
11771;SDS011;12556;55.748;13.194;2023-02-01T13:42:11;8.43;;;2.00;;
11771;SDS011;12556;55.748;13.194;2023-02-01T13:44:44;4.40;;;1.63;;
11771;SDS011;12556;55.748;13.194;2023-02-01T13:47:17;5.97;;;2.27;;
11771;SDS011;12556;55.748;13.194;2023-02-01T13:49:54;5.73;;;2.23;;
11771;SDS011;12556;55.748;13.194;2023-02-01T13:52:24;6.57;;;1.80;;
11771;SDS011;12556;55.748;13.194;2023-02-01T13:55:02;4.27;;;1.57;;
11771;SDS011;12556;55.748;13.194;2023-02-01T13:57:41;6.77;;;1.83;;
11771;SDS011;12556;55.748;13.194;2023-02-01T14:00:23;4.10;;;1.43;;
11771;SDS011;12556;55.748;13.194;2023-02-01T14:03:02;5.60;;;1.70;;
11771;SDS011;12556;55.748;13.194;2023-02-01T14:12:39;8.47;;;2.00;;
11771;SDS011;12556;55.748;13.194;2023-02-01T14:15:22;3.63;;;1.80;;
11771;SDS011;12556;55.748;13.194;2023-02-01T14:17:52;4.87;;;2.37;;
11771;SDS011;12556;55.748;13.194;2023-02-01T14:23:20;6.30;;;2.20;;
11771;SDS011;12556;55.748;13.194;2023-02-01T14:26:03;6.53;;;2.10;;
11771;SDS011;12556;55.748;13.194;2023-02-01T14:28:35;6.13;;;2.30;;
11771;SDS011;12556;55.748;13.194;2023-02-01T14:31:26;9.03;;;2.13;;
11771;SDS011;12556;55.748;13.194;2023-02-01T14:34:02;7.77;;;2.50;;
11771;SDS011;12556;55.748;13.194;2023-02-01T14:36:42;12.20;;;2.40;;
11771;SDS011;12556;55.748;13.194;2023-02-01T14:39:29;11.50;;;2.90;;
11771;SDS011;12556;55.748;13.194;2023-02-01T14:42:01;7.87;;;2.40;;
11771;SDS011;12556;55.748;13.194;2023-02-01T14:44:35;12.10;;;2.63;;
11771;SDS011;12556;55.748;13.194;2023-02-01T14:50:10;11.10;;;2.80;;
11771;SDS011;12556;55.748;13.194;2023-02-01T14:52:49;7.23;;;2.40;;
11771;SDS011;12556;55.748;13.194;2023-02-01T14:55:25;16.03;;;5.67;;
11771;SDS011;12556;55.748;13.194;2023-02-01T14:57:57;8.53;;;3.60;;
11771;SDS011;12556;55.748;13.194;2023-02-01T15:00:28;9.73;;;3.40;;
11771;SDS011;12556;55.748;13.194;2023-02-01T15:03:11;12.70;;;3.07;;
11771;SDS011;12556;55.748;13.194;2023-02-01T15:05:54;10.90;;;3.20;;
11771;SDS011;12556;55.748;13.194;2023-02-01T15:08:23;13.60;;;3.13;;
11771;SDS011;12556;55.748;13.194;2023-02-01T15:10:54;14.57;;;3.80;;
11771;SDS011;12556;55.748;13.194;2023-02-01T15:13:22;11.80;;;4.37;;
11771;SDS011;12556;55.748;13.194;2023-02-01T15:16:03;8.40;;;2.77;;